sensor_id;sensor_type;location;lat;lon;timestamp;temperature;humidity
65707;SHT31;52423;43.512;5.220;2023-01-10T00:00:24;6.33;72.61
65707;SHT31;52423;43.512;5.220;2023-01-10T00:02:50;6.46;71.35
65707;SHT31;52423;43.512;5.220;2023-01-10T00:05:16;6.56;72.03
65707;SHT31;52423;43.512;5.220;2023-01-10T00:07:42;6.60;71.90
65707;SHT31;52423;43.512;5.220;2023-01-10T00:10:08;6.54;69.18
65707;SHT31;52423;43.512;5.220;2023-01-10T00:12:34;6.57;71.39
65707;SHT31;52423;43.512;5.220;2023-01-10T00:15:18;6.43;71.93
65707;SHT31;52423;43.512;5.220;2023-01-10T00:17:43;6.50;72.47
65707;SHT31;52423;43.512;5.220;2023-01-10T00:20:09;6.43;71.17
65707;SHT31;52423;43.512;5.220;2023-01-10T00:22:35;6.57;71.96
65707;SHT31;52423;43.512;5.220;2023-01-10T00:25:00;6.57;71.40
65707;SHT31;52423;43.512;5.220;2023-01-10T00:27:26;6.71;71.49
65707;SHT31;52423;43.512;5.220;2023-01-10T00:29:51;6.67;71.84
65707;SHT31;52423;43.512;5.220;2023-01-10T00:32:20;6.66;71.26
65707;SHT31;52423;43.512;5.220;2023-01-10T00:34:46;6.76;71.69
65707;SHT31;52423;43.512;5.220;2023-01-10T00:37:12;6.81;71.31
65707;SHT31;52423;43.512;5.220;2023-01-10T00:39:37;6.78;70.90
65707;SHT31;52423;43.512;5.220;2023-01-10T00:42:03;6.88;70.74
65707;SHT31;52423;43.512;5.220;2023-01-10T00:44:47;6.83;69.94
65707;SHT31;52423;43.512;5.220;2023-01-10T00:47:13;6.90;70.28
65707;SHT31;52423;43.512;5.220;2023-01-10T00:49:38;6.95;71.71
65707;SHT31;52423;43.512;5.220;2023-01-10T00:52:04;6.94;69.71
65707;SHT31;52423;43.512;5.220;2023-01-10T00:54:30;6.90;68.27
65707;SHT31;52423;43.512;5.220;2023-01-10T00:56:55;6.87;70.17
65707;SHT31;52423;43.512;5.220;2023-01-10T00:59:22;6.97;68.91
65707;SHT31;52423;43.512;5.220;2023-01-10T01:01:48;6.99;70.12
65707;SHT31;52423;43.512;5.220;2023-01-10T01:04:13;6.95;69.83
65707;SHT31;52423;43.512;5.220;2023-01-10T01:06:39;6.99;69.44
65707;SHT31;52423;43.512;5.220;2023-01-10T01:09:04;6.90;69.56
65707;SHT31;52423;43.512;5.220;2023-01-10T01:11:30;6.97;70.40
65707;SHT31;52423;43.512;5.220;2023-01-10T01:13:55;6.99;69.58
65707;SHT31;52423;43.512;5.220;2023-01-10T01:16:21;7.08;69.65
65707;SHT31;52423;43.512;5.220;2023-01-10T01:18:46;6.98;68.17
65707;SHT31;52423;43.512;5.220;2023-01-10T01:21:12;6.91;69.72
65707;SHT31;52423;43.512;5.220;2023-01-10T01:23:37;7.04;68.85
65707;SHT31;52423;43.512;5.220;2023-01-10T01:26:03;7.08;67.99
65707;SHT31;52423;43.512;5.220;2023-01-10T01:28:29;7.11;68.47
65707;SHT31;52423;43.512;5.220;2023-01-10T01:30:55;7.02;70.48
65707;SHT31;52423;43.512;5.220;2023-01-10T01:33:20;6.90;70.17
65707;SHT31;52423;43.512;5.220;2023-01-10T01:35:47;6.88;70.76
65707;SHT31;52423;43.512;5.220;2023-01-10T01:38:13;6.83;70.57
65707;SHT31;52423;43.512;5.220;2023-01-10T01:40:39;6.71;71.49
65707;SHT31;52423;43.512;5.220;2023-01-10T01:43:21;6.80;69.93
65707;SHT31;52423;43.512;5.220;2023-01-10T01:45:47;6.84;72.14
65707;SHT31;52423;43.512;5.220;2023-01-10T01:53:27;6.85;69.67
65707;SHT31;52423;43.512;5.220;2023-01-10T01:55:56;6.88;71.00
65707;SHT31;52423;43.512;5.220;2023-01-10T01:58:28;7.08;69.51
65707;SHT31;52423;43.512;5.220;2023-01-10T02:00:55;7.22;69.47
65707;SHT31;52423;43.512;5.220;2023-01-10T02:03:23;7.23;68.41
65707;SHT31;52423;43.512;5.220;2023-01-10T02:05:48;7.30;68.38
65707;SHT31;52423;43.512;5.220;2023-01-10T02:08:14;7.39;67.56
65707;SHT31;52423;43.512;5.220;2023-01-10T02:10:47;7.48;67.61
65707;SHT31;52423;43.512;5.220;2023-01-10T02:13:18;7.62;66.46
65707;SHT31;52423;43.512;5.220;2023-01-10T02:15:44;7.66;66.44
65707;SHT31;52423;43.512;5.220;2023-01-10T02:18:10;7.67;66.57
65707;SHT31;52423;43.512;5.220;2023-01-10T02:20:53;7.73;65.66
65707;SHT31;52423;43.512;5.220;2023-01-10T02:23:52;7.69;66.00
65707;SHT31;52423;43.512;5.220;2023-01-10T02:38:48;7.56;66.65
65707;SHT31;52423;43.512;5.220;2023-01-10T02:43:19;7.56;67.56
65707;SHT31;52423;43.512;5.220;2023-01-10T02:48:20;7.52;66.47
65707;SHT31;52423;43.512;5.220;2023-01-10T02:50:53;7.55;66.28
65707;SHT31;52423;43.512;5.220;2023-01-10T02:53:24;7.60;66.34
65707;SHT31;52423;43.512;5.220;2023-01-10T03:10:20;7.36;69.58
65707;SHT31;52423;43.512;5.220;2023-01-10T03:12:55;7.32;69.22
65707;SHT31;52423;43.512;5.220;2023-01-10T03:15:22;7.26;69.05
65707;SHT31;52423;43.512;5.220;2023-01-10T03:17:52;7.18;69.32
65707;SHT31;52423;43.512;5.220;2023-01-10T03:20:19;7.14;69.93
65707;SHT31;52423;43.512;5.220;2023-01-10T03:22:46;7.07;69.86
65707;SHT31;52423;43.512;5.220;2023-01-10T03:25:13;7.04;70.14
65707;SHT31;52423;43.512;5.220;2023-01-10T03:30:50;7.02;70.72
65707;SHT31;52423;43.512;5.220;2023-01-10T03:33:20;7.05;69.95
65707;SHT31;52423;43.512;5.220;2023-01-10T03:35:53;7.02;71.62
65707;SHT31;52423;43.512;5.220;2023-01-10T03:38:40;7.01;70.78
65707;SHT31;52423;43.512;5.220;2023-01-10T03:43:53;6.90;71.13
65707;SHT31;52423;43.512;5.220;2023-01-10T03:46:53;6.88;70.98
65707;SHT31;52423;43.512;5.220;2023-01-10T03:49:22;6.97;71.66
65707;SHT31;52423;43.512;5.220;2023-01-10T03:51:49;6.94;70.60
65707;SHT31;52423;43.512;5.220;2023-01-10T03:54:15;6.92;72.26
65707;SHT31;52423;43.512;5.220;2023-01-10T03:56:48;6.90;71.26
65707;SHT31;52423;43.512;5.220;2023-01-10T03:59:22;6.92;71.66
65707;SHT31;52423;43.512;5.220;2023-01-10T04:01:48;6.87;71.26
65707;SHT31;52423;43.512;5.220;2023-01-10T04:04:14;6.91;71.89
65707;SHT31;52423;43.512;5.220;2023-01-10T04:06:39;6.91;72.08
65707;SHT31;52423;43.512;5.220;2023-01-10T04:09:05;6.88;71.73
65707;SHT31;52423;43.512;5.220;2023-01-10T04:11:31;6.90;71.60
65707;SHT31;52423;43.512;5.220;2023-01-10T04:13:56;6.78;71.28
65707;SHT31;52423;43.512;5.220;2023-01-10T04:16:22;6.77;71.75
65707;SHT31;52423;43.512;5.220;2023-01-10T04:18:47;6.58;73.55
65707;SHT31;52423;43.512;5.220;2023-01-10T04:21:13;6.46;73.75
65707;SHT31;52423;43.512;5.220;2023-01-10T04:23:38;6.34;74.71
65707;SHT31;52423;43.512;5.220;2023-01-10T04:26:04;6.32;73.37
65707;SHT31;52423;43.512;5.220;2023-01-10T04:28:29;6.30;73.80
65707;SHT31;52423;43.512;5.220;2023-01-10T04:30:54;6.25;74.37
65707;SHT31;52423;43.512;5.220;2023-01-10T04:33:20;6.25;73.50
65707;SHT31;52423;43.512;5.220;2023-01-10T04:35:46;6.22;74.05
65707;SHT31;52423;43.512;5.220;2023-01-10T04:38:12;6.15;74.16
65707;SHT31;52423;43.512;5.220;2023-01-10T04:40:37;6.09;72.91
65707;SHT31;52423;43.512;5.220;2023-01-10T04:43:03;6.12;73.18
65707;SHT31;52423;43.512;5.220;2023-01-10T04:45:28;6.12;73.49
65707;SHT31;52423;43.512;5.220;2023-01-10T04:47:53;6.12;73.14
65707;SHT31;52423;43.512;5.220;2023-01-10T04:50:21;5.92;74.96
65707;SHT31;52423;43.512;5.220;2023-01-10T04:52:47;5.98;74.52
65707;SHT31;52423;43.512;5.220;2023-01-10T04:55:13;5.94;74.13
65707;SHT31;52423;43.512;5.220;2023-01-10T04:57:38;5.88;73.79
65707;SHT31;52423;43.512;5.220;2023-01-10T05:00:04;5.94;73.62
65707;SHT31;52423;43.512;5.220;2023-01-10T05:02:29;6.09;71.89
65707;SHT31;52423;43.512;5.220;2023-01-10T05:04:55;6.18;72.42
65707;SHT31;52423;43.512;5.220;2023-01-10T05:07:20;6.12;72.31
65707;SHT31;52423;43.512;5.220;2023-01-10T05:09:45;6.15;72.77
65707;SHT31;52423;43.512;5.220;2023-01-10T05:12:11;6.18;70.60
65707;SHT31;52423;43.512;5.220;2023-01-10T05:14:36;6.25;71.29
65707;SHT31;52423;43.512;5.220;2023-01-10T05:17:02;6.20;71.88
65707;SHT31;52423;43.512;5.220;2023-01-10T05:19:27;6.15;70.95
65707;SHT31;52423;43.512;5.220;2023-01-10T05:21:53;6.23;71.04
65707;SHT31;52423;43.512;5.220;2023-01-10T05:24:19;6.41;69.92
65707;SHT31;52423;43.512;5.220;2023-01-10T05:26:44;6.36;70.03
65707;SHT31;52423;43.512;5.220;2023-01-10T05:29:10;6.53;70.52
65707;SHT31;52423;43.512;5.220;2023-01-10T05:31:36;6.53;69.65
65707;SHT31;52423;43.512;5.220;2023-01-10T05:34:01;6.97;65.15
65707;SHT31;52423;43.512;5.220;2023-01-10T05:36:27;7.07;64.96
65707;SHT31;52423;43.512;5.220;2023-01-10T05:38:52;7.05;66.28
65707;SHT31;52423;43.512;5.220;2023-01-10T05:41:18;7.11;64.26
65707;SHT31;52423;43.512;5.220;2023-01-10T05:43:43;7.09;65.77
65707;SHT31;52423;43.512;5.220;2023-01-10T05:46:09;7.26;63.16
65707;SHT31;52423;43.512;5.220;2023-01-10T05:48:34;7.22;65.17
65707;SHT31;52423;43.512;5.220;2023-01-10T05:51:00;7.29;64.84
65707;SHT31;52423;43.512;5.220;2023-01-10T05:53:26;7.35;64.35
65707;SHT31;52423;43.512;5.220;2023-01-10T05:56:01;7.40;63.18
65707;SHT31;52423;43.512;5.220;2023-01-10T05:58:27;7.42;63.06
65707;SHT31;52423;43.512;5.220;2023-01-10T06:00:54;7.38;63.85
65707;SHT31;52423;43.512;5.220;2023-01-10T06:03:20;7.38;64.42
65707;SHT31;52423;43.512;5.220;2023-01-10T06:05:45;7.40;64.91
65707;SHT31;52423;43.512;5.220;2023-01-10T06:08:11;7.39;63.29
65707;SHT31;52423;43.512;5.220;2023-01-10T06:10:36;7.40;64.10
65707;SHT31;52423;43.512;5.220;2023-01-10T06:13:02;7.62;60.64
65707;SHT31;52423;43.512;5.220;2023-01-10T06:15:29;7.43;63.28
65707;SHT31;52423;43.512;5.220;2023-01-10T06:17:55;7.58;61.30
65707;SHT31;52423;43.512;5.220;2023-01-10T06:20:20;7.71;60.44
65707;SHT31;52423;43.512;5.220;2023-01-10T06:22:45;7.77;60.02
65707;SHT31;52423;43.512;5.220;2023-01-10T06:25:12;7.76;60.84
65707;SHT31;52423;43.512;5.220;2023-01-10T06:27:41;7.83;59.65
65707;SHT31;52423;43.512;5.220;2023-01-10T06:30:08;7.70;61.26
65707;SHT31;52423;43.512;5.220;2023-01-10T06:32:34;7.62;62.66
65707;SHT31;52423;43.512;5.220;2023-01-10T06:35:00;7.58;62.67
65707;SHT31;52423;43.512;5.220;2023-01-10T06:37:25;7.79;60.06
65707;SHT31;52423;43.512;5.220;2023-01-10T06:39:51;7.77;60.22
65707;SHT31;52423;43.512;5.220;2023-01-10T06:42:16;7.69;61.53
65707;SHT31;52423;43.512;5.220;2023-01-10T06:44:41;7.62;62.25
65707;SHT31;52423;43.512;5.220;2023-01-10T06:47:07;7.52;62.42
65707;SHT31;52423;43.512;5.220;2023-01-10T06:49:32;7.49;62.89
65707;SHT31;52423;43.512;5.220;2023-01-10T06:51:57;7.53;61.96
65707;SHT31;52423;43.512;5.220;2023-01-10T06:54:23;7.49;62.79
65707;SHT31;52423;43.512;5.220;2023-01-10T06:56:48;7.42;62.82
65707;SHT31;52423;43.512;5.220;2023-01-10T06:59:14;7.46;63.41
65707;SHT31;52423;43.512;5.220;2023-01-10T07:01:39;7.42;63.59
65707;SHT31;52423;43.512;5.220;2023-01-10T07:04:05;7.29;64.76
65707;SHT31;52423;43.512;5.220;2023-01-10T07:06:30;7.48;63.33
65707;SHT31;52423;43.512;5.220;2023-01-10T07:08:56;7.49;62.94
65707;SHT31;52423;43.512;5.220;2023-01-10T07:11:22;7.43;64.05
65707;SHT31;52423;43.512;5.220;2023-01-10T07:13:47;7.48;63.97
65707;SHT31;52423;43.512;5.220;2023-01-10T07:16:14;7.50;63.78
65707;SHT31;52423;43.512;5.220;2023-01-10T07:18:41;7.56;63.14
65707;SHT31;52423;43.512;5.220;2023-01-10T07:21:08;7.59;62.62
65707;SHT31;52423;43.512;5.220;2023-01-10T07:23:34;7.58;63.14
65707;SHT31;52423;43.512;5.220;2023-01-10T07:26:05;7.55;64.05
65707;SHT31;52423;43.512;5.220;2023-01-10T07:28:31;7.65;62.99
65707;SHT31;52423;43.512;5.220;2023-01-10T07:30:58;7.73;61.24
65707;SHT31;52423;43.512;5.220;2023-01-10T07:33:24;7.77;61.47
65707;SHT31;52423;43.512;5.220;2023-01-10T07:35:49;7.71;63.57
65707;SHT31;52423;43.512;5.220;2023-01-10T07:38:15;7.77;63.03
65707;SHT31;52423;43.512;5.220;2023-01-10T07:40:40;7.91;63.55
65707;SHT31;52423;43.512;5.220;2023-01-10T07:43:05;7.94;63.16
65707;SHT31;52423;43.512;5.220;2023-01-10T07:45:31;7.83;63.81
65707;SHT31;52423;43.512;5.220;2023-01-10T07:48:01;7.97;61.91
65707;SHT31;52423;43.512;5.220;2023-01-10T07:50:29;8.15;62.63
65707;SHT31;52423;43.512;5.220;2023-01-10T07:52:55;8.15;62.00
65707;SHT31;52423;43.512;5.220;2023-01-10T07:55:21;8.27;63.52
65707;SHT31;52423;43.512;5.220;2023-01-10T07:57:48;8.44;62.18
65707;SHT31;52423;43.512;5.220;2023-01-10T08:00:14;8.48;62.33
65707;SHT31;52423;43.512;5.220;2023-01-10T08:02:40;8.70;61.34
65707;SHT31;52423;43.512;5.220;2023-01-10T08:05:05;8.76;60.71
65707;SHT31;52423;43.512;5.220;2023-01-10T08:07:31;8.82;61.38
65707;SHT31;52423;43.512;5.220;2023-01-10T08:09:58;8.87;61.10
65707;SHT31;52423;43.512;5.220;2023-01-10T08:12:23;9.14;61.30
65707;SHT31;52423;43.512;5.220;2023-01-10T08:14:52;8.94;60.50
65707;SHT31;52423;43.512;5.220;2023-01-10T08:17:18;8.99;61.79
65707;SHT31;52423;43.512;5.220;2023-01-10T08:19:44;9.09;61.27
65707;SHT31;52423;43.512;5.220;2023-01-10T08:22:09;9.19;61.12
65707;SHT31;52423;43.512;5.220;2023-01-10T08:24:35;9.17;61.73
65707;SHT31;52423;43.512;5.220;2023-01-10T08:27:01;9.31;61.10
65707;SHT31;52423;43.512;5.220;2023-01-10T08:29:27;9.35;60.72
65707;SHT31;52423;43.512;5.220;2023-01-10T08:31:52;9.26;58.93
65707;SHT31;52423;43.512;5.220;2023-01-10T08:34:18;9.04;60.66
65707;SHT31;52423;43.512;5.220;2023-01-10T08:36:44;9.31;60.80
65707;SHT31;52423;43.512;5.220;2023-01-10T08:39:11;9.11;60.02
65707;SHT31;52423;43.512;5.220;2023-01-10T08:41:36;9.16;61.05
65707;SHT31;52423;43.512;5.220;2023-01-10T08:44:04;9.06;60.48
65707;SHT31;52423;43.512;5.220;2023-01-10T08:46:29;8.96;62.50
65707;SHT31;52423;43.512;5.220;2023-01-10T08:48:55;8.82;62.30
65707;SHT31;52423;43.512;5.220;2023-01-10T08:51:20;8.90;61.72
65707;SHT31;52423;43.512;5.220;2023-01-10T08:53:45;8.89;61.59
65707;SHT31;52423;43.512;5.220;2023-01-10T08:56:11;8.82;63.11
65707;SHT31;52423;43.512;5.220;2023-01-10T08:58:36;8.84;62.19
65707;SHT31;52423;43.512;5.220;2023-01-10T09:01:06;8.87;62.09
65707;SHT31;52423;43.512;5.220;2023-01-10T09:03:33;8.93;60.32
65707;SHT31;52423;43.512;5.220;2023-01-10T09:05:59;8.89;61.06
65707;SHT31;52423;43.512;5.220;2023-01-10T09:08:25;8.83;62.43
65707;SHT31;52423;43.512;5.220;2023-01-10T09:10:50;8.87;63.11
65707;SHT31;52423;43.512;5.220;2023-01-10T09:13:16;8.97;60.22
65707;SHT31;52423;43.512;5.220;2023-01-10T09:15:42;8.97;63.05
65707;SHT31;52423;43.512;5.220;2023-01-10T09:18:09;8.97;61.22
65707;SHT31;52423;43.512;5.220;2023-01-10T09:20:37;9.06;60.37
65707;SHT31;52423;43.512;5.220;2023-01-10T09:23:05;8.99;61.77
65707;SHT31;52423;43.512;5.220;2023-01-10T09:25:31;9.04;61.36
65707;SHT31;52423;43.512;5.220;2023-01-10T09:27:57;9.17;60.57
65707;SHT31;52423;43.512;5.220;2023-01-10T09:30:24;9.28;60.39
65707;SHT31;52423;43.512;5.220;2023-01-10T09:32:53;9.40;59.76
65707;SHT31;52423;43.512;5.220;2023-01-10T09:35:19;9.55;60.59
65707;SHT31;52423;43.512;5.220;2023-01-10T09:37:45;9.78;57.75
65707;SHT31;52423;43.512;5.220;2023-01-10T09:40:22;9.88;58.71
65707;SHT31;52423;43.512;5.220;2023-01-10T09:48:59;10.17;57.09
65707;SHT31;52423;43.512;5.220;2023-01-10T09:51:44;10.20;56.29
65707;SHT31;52423;43.512;5.220;2023-01-10T09:54:26;10.40;54.92
65707;SHT31;52423;43.512;5.220;2023-01-10T09:56:53;10.53;54.59
65707;SHT31;52423;43.512;5.220;2023-01-10T09:59:23;10.47;55.88
65707;SHT31;52423;43.512;5.220;2023-01-10T10:01:56;10.60;53.96
65707;SHT31;52423;43.512;5.220;2023-01-10T10:04:31;10.53;56.31
65707;SHT31;52423;43.512;5.220;2023-01-10T10:06:58;10.32;56.53
65707;SHT31;52423;43.512;5.220;2023-01-10T10:09:30;10.23;58.02
65707;SHT31;52423;43.512;5.220;2023-01-10T10:17:28;10.26;57.70
65707;SHT31;52423;43.512;5.220;2023-01-10T10:22:46;10.36;56.02
65707;SHT31;52423;43.512;5.220;2023-01-10T10:36:52;10.53;54.76
65707;SHT31;52423;43.512;5.220;2023-01-10T10:39:22;10.40;56.99
65707;SHT31;52423;43.512;5.220;2023-01-10T10:41:52;10.42;55.04
65707;SHT31;52423;43.512;5.220;2023-01-10T10:46:43;10.49;57.15
65707;SHT31;52423;43.512;5.220;2023-01-10T10:49:32;10.60;54.36
65707;SHT31;52423;43.512;5.220;2023-01-10T10:52:01;10.64;55.63
65707;SHT31;52423;43.512;5.220;2023-01-10T10:54:34;10.60;55.88
65707;SHT31;52423;43.512;5.220;2023-01-10T10:57:00;10.71;55.82
65707;SHT31;52423;43.512;5.220;2023-01-10T10:59:25;10.78;56.06
65707;SHT31;52423;43.512;5.220;2023-01-10T11:01:51;10.85;55.36
65707;SHT31;52423;43.512;5.220;2023-01-10T11:04:21;11.01;53.47
65707;SHT31;52423;43.512;5.220;2023-01-10T11:06:48;11.04;52.17
65707;SHT31;52423;43.512;5.220;2023-01-10T11:09:15;11.15;53.93
65707;SHT31;52423;43.512;5.220;2023-01-10T11:11:49;11.14;53.35
65707;SHT31;52423;43.512;5.220;2023-01-10T11:14:53;11.23;52.66
65707;SHT31;52423;43.512;5.220;2023-01-10T11:17:23;11.26;51.49
65707;SHT31;52423;43.512;5.220;2023-01-10T11:22:20;11.32;53.34
65707;SHT31;52423;43.512;5.220;2023-01-10T11:24:52;11.47;50.78
65707;SHT31;52423;43.512;5.220;2023-01-10T11:27:19;11.49;51.93
65707;SHT31;52423;43.512;5.220;2023-01-10T11:29:48;11.56;51.86
65707;SHT31;52423;43.512;5.220;2023-01-10T11:32:19;11.52;53.95
65707;SHT31;52423;43.512;5.220;2023-01-10T11:34:54;11.51;50.74
65707;SHT31;52423;43.512;5.220;2023-01-10T11:37:29;11.47;53.22
65707;SHT31;52423;43.512;5.220;2023-01-10T11:42:33;11.49;51.18
65707;SHT31;52423;43.512;5.220;2023-01-10T11:45:18;11.43;52.79
65707;SHT31;52423;43.512;5.220;2023-01-10T11:47:45;11.38;53.23
65707;SHT31;52423;43.512;5.220;2023-01-10T11:50:14;11.39;53.73
65707;SHT31;52423;43.512;5.220;2023-01-10T11:52:43;11.39;54.66
65707;SHT31;52423;43.512;5.220;2023-01-10T11:55:09;11.46;52.36
65707;SHT31;52423;43.512;5.220;2023-01-10T11:57:34;11.40;52.41
65707;SHT31;52423;43.512;5.220;2023-01-10T12:00:04;11.38;54.07
65707;SHT31;52423;43.512;5.220;2023-01-10T12:02:38;11.35;54.02
65707;SHT31;52423;43.512;5.220;2023-01-10T12:05:22;11.32;54.44
65707;SHT31;52423;43.512;5.220;2023-01-10T12:10:21;11.55;51.88
65707;SHT31;52423;43.512;5.220;2023-01-10T12:12:57;11.52;53.07
65707;SHT31;52423;43.512;5.220;2023-01-10T12:15:27;11.53;52.48
65707;SHT31;52423;43.512;5.220;2023-01-10T12:17:53;11.62;52.58
65707;SHT31;52423;43.512;5.220;2023-01-10T12:20:19;11.69;52.09
65707;SHT31;52423;43.512;5.220;2023-01-10T12:22:46;11.72;51.80
65707;SHT31;52423;43.512;5.220;2023-01-10T12:28:19;11.89;51.71
65707;SHT31;52423;43.512;5.220;2023-01-10T12:30:44;11.95;51.47
65707;SHT31;52423;43.512;5.220;2023-01-10T12:33:16;12.03;50.60
65707;SHT31;52423;43.512;5.220;2023-01-10T12:38:28;12.13;50.59
65707;SHT31;52423;43.512;5.220;2023-01-10T12:41:13;12.20;48.72
65707;SHT31;52423;43.512;5.220;2023-01-10T12:44:00;12.28;51.94
65707;SHT31;52423;43.512;5.220;2023-01-10T12:49:18;12.38;49.09
65707;SHT31;52423;43.512;5.220;2023-01-10T12:51:45;12.35;50.25
65707;SHT31;52423;43.512;5.220;2023-01-10T12:54:14;12.28;51.06
65707;SHT31;52423;43.512;5.220;2023-01-10T12:56:40;12.32;51.88
65707;SHT31;52423;43.512;5.220;2023-01-10T12:59:16;12.42;48.10
65707;SHT31;52423;43.512;5.220;2023-01-10T13:01:44;12.32;48.22
65707;SHT31;52423;43.512;5.220;2023-01-10T13:04:12;12.32;47.88
65707;SHT31;52423;43.512;5.220;2023-01-10T13:06:40;12.35;49.43
65707;SHT31;52423;43.512;5.220;2023-01-10T13:09:07;12.42;48.06
65707;SHT31;52423;43.512;5.220;2023-01-10T13:11:36;12.45;48.51
65707;SHT31;52423;43.512;5.220;2023-01-10T13:14:04;12.54;46.30
65707;SHT31;52423;43.512;5.220;2023-01-10T13:21:33;12.49;48.51
65707;SHT31;52423;43.512;5.220;2023-01-10T13:24:02;12.49;49.22
65707;SHT31;52423;43.512;5.220;2023-01-10T13:29:30;12.40;48.78
65707;SHT31;52423;43.512;5.220;2023-01-10T13:32:01;12.44;49.01
65707;SHT31;52423;43.512;5.220;2023-01-10T13:34:39;12.46;47.58
65707;SHT31;52423;43.512;5.220;2023-01-10T13:37:11;12.41;47.71
65707;SHT31;52423;43.512;5.220;2023-01-10T13:39:38;12.48;46.77
65707;SHT31;52423;43.512;5.220;2023-01-10T13:52:47;12.56;48.32
65707;SHT31;52423;43.512;5.220;2023-01-10T13:55:54;12.68;46.36
65707;SHT31;52423;43.512;5.220;2023-01-10T13:58:18;12.66;45.35
65707;SHT31;52423;43.512;5.220;2023-01-10T14:04:16;12.68;46.31
65707;SHT31;52423;43.512;5.220;2023-01-10T14:06:42;12.62;44.93
65707;SHT31;52423;43.512;5.220;2023-01-10T14:14:14;12.81;46.71
65707;SHT31;52423;43.512;5.220;2023-01-10T14:16:42;12.63;46.97
65707;SHT31;52423;43.512;5.220;2023-01-10T14:19:29;12.68;44.26
65707;SHT31;52423;43.512;5.220;2023-01-10T14:21:55;12.71;45.73
65707;SHT31;52423;43.512;5.220;2023-01-10T14:24:39;12.65;45.61
65707;SHT31;52423;43.512;5.220;2023-01-10T14:27:05;12.68;43.04
65707;SHT31;52423;43.512;5.220;2023-01-10T14:29:31;12.66;46.17
65707;SHT31;52423;43.512;5.220;2023-01-10T14:31:58;12.71;45.62
65707;SHT31;52423;43.512;5.220;2023-01-10T14:34:24;12.65;45.65
65707;SHT31;52423;43.512;5.220;2023-01-10T14:37:00;12.69;43.89
65707;SHT31;52423;43.512;5.220;2023-01-10T14:39:27;12.73;44.92
65707;SHT31;52423;43.512;5.220;2023-01-10T14:41:54;12.63;44.61
65707;SHT31;52423;43.512;5.220;2023-01-10T14:44:31;12.63;43.93
65707;SHT31;52423;43.512;5.220;2023-01-10T14:47:01;12.65;44.96
65707;SHT31;52423;43.512;5.220;2023-01-10T14:49:33;12.55;45.10
65707;SHT31;52423;43.512;5.220;2023-01-10T14:54:36;12.44;46.21
65707;SHT31;52423;43.512;5.220;2023-01-10T14:57:02;12.51;46.03
65707;SHT31;52423;43.512;5.220;2023-01-10T15:01:54;12.31;47.77
65707;SHT31;52423;43.512;5.220;2023-01-10T15:04:21;12.34;46.43
65707;SHT31;52423;43.512;5.220;2023-01-10T15:06:55;12.31;46.54
65707;SHT31;52423;43.512;5.220;2023-01-10T15:09:20;12.27;47.26
65707;SHT31;52423;43.512;5.220;2023-01-10T15:11:46;12.28;47.45
65707;SHT31;52423;43.512;5.220;2023-01-10T15:14:12;12.21;47.96
65707;SHT31;52423;43.512;5.220;2023-01-10T15:16:41;12.18;47.34
65707;SHT31;52423;43.512;5.220;2023-01-10T15:19:09;12.17;47.25
65707;SHT31;52423;43.512;5.220;2023-01-10T15:21:39;12.08;48.42
65707;SHT31;52423;43.512;5.220;2023-01-10T15:24:21;12.03;48.24
65707;SHT31;52423;43.512;5.220;2023-01-10T15:26:46;11.97;48.44
65707;SHT31;52423;43.512;5.220;2023-01-10T15:29:16;11.93;49.60
65707;SHT31;52423;43.512;5.220;2023-01-10T15:31:43;11.94;47.38
65707;SHT31;52423;43.512;5.220;2023-01-10T15:34:16;11.82;49.59
65707;SHT31;52423;43.512;5.220;2023-01-10T15:36:43;11.89;48.14
65707;SHT31;52423;43.512;5.220;2023-01-10T15:39:13;11.80;49.97
65707;SHT31;52423;43.512;5.220;2023-01-10T15:41:41;11.79;49.07
65707;SHT31;52423;43.512;5.220;2023-01-10T15:44:40;11.65;49.44
65707;SHT31;52423;43.512;5.220;2023-01-10T15:46:58;11.59;50.07
65707;SHT31;52423;43.512;5.220;2023-01-10T15:49:23;11.56;49.51
65707;SHT31;52423;43.512;5.220;2023-01-10T15:51:49;11.53;50.84
65707;SHT31;52423;43.512;5.220;2023-01-10T16:01:45;11.18;51.98
65707;SHT31;52423;43.512;5.220;2023-01-10T16:04:16;11.16;51.82
65707;SHT31;52423;43.512;5.220;2023-01-10T16:06:41;11.08;51.36
65707;SHT31;52423;43.512;5.220;2023-01-10T16:09:14;10.95;52.99
65707;SHT31;52423;43.512;5.220;2023-01-10T16:11:50;10.90;54.53
65707;SHT31;52423;43.512;5.220;2023-01-10T16:14:34;10.75;54.91
65707;SHT31;52423;43.512;5.220;2023-01-10T16:17:00;10.63;54.92
65707;SHT31;52423;43.512;5.220;2023-01-10T16:19:26;10.54;56.59
65707;SHT31;52423;43.512;5.220;2023-01-10T16:21:52;10.49;55.20
65707;SHT31;52423;43.512;5.220;2023-01-10T16:24:31;10.40;55.73
65707;SHT31;52423;43.512;5.220;2023-01-10T16:26:58;10.36;56.19
65707;SHT31;52423;43.512;5.220;2023-01-10T16:29:27;10.28;55.91
65707;SHT31;52423;43.512;5.220;2023-01-10T16:31:52;10.28;55.29
65707;SHT31;52423;43.512;5.220;2023-01-10T16:34:17;10.26;56.36
65707;SHT31;52423;43.512;5.220;2023-01-10T16:36:43;10.20;57.27
65707;SHT31;52423;43.512;5.220;2023-01-10T16:39:13;10.10;57.04
65707;SHT31;52423;43.512;5.220;2023-01-10T16:41:38;10.19;56.65
65707;SHT31;52423;43.512;5.220;2023-01-10T16:44:22;10.23;55.82
65707;SHT31;52423;43.512;5.220;2023-01-10T16:46:47;10.14;56.94
65707;SHT31;52423;43.512;5.220;2023-01-10T16:49:14;10.23;56.17
65707;SHT31;52423;43.512;5.220;2023-01-10T16:51:39;10.16;57.92
65707;SHT31;52423;43.512;5.220;2023-01-10T16:54:05;10.13;57.75
65707;SHT31;52423;43.512;5.220;2023-01-10T16:56:30;10.16;55.88
65707;SHT31;52423;43.512;5.220;2023-01-10T16:58:55;10.16;56.60
65707;SHT31;52423;43.512;5.220;2023-01-10T17:01:22;10.16;56.61
65707;SHT31;52423;43.512;5.220;2023-01-10T17:03:49;10.10;57.07
65707;SHT31;52423;43.512;5.220;2023-01-10T17:06:14;9.95;57.57
65707;SHT31;52423;43.512;5.220;2023-01-10T17:08:40;9.92;57.56
65707;SHT31;52423;43.512;5.220;2023-01-10T17:11:07;9.83;57.98
65707;SHT31;52423;43.512;5.220;2023-01-10T17:13:35;9.83;58.11
65707;SHT31;52423;43.512;5.220;2023-01-10T17:16:02;9.82;58.83
65707;SHT31;52423;43.512;5.220;2023-01-10T17:18:28;9.82;58.30
65707;SHT31;52423;43.512;5.220;2023-01-10T17:20:53;9.78;59.06
65707;SHT31;52423;43.512;5.220;2023-01-10T17:23:20;9.77;59.10
65707;SHT31;52423;43.512;5.220;2023-01-10T17:25:45;9.75;58.57
65707;SHT31;52423;43.512;5.220;2023-01-10T17:28:13;9.77;59.15
65707;SHT31;52423;43.512;5.220;2023-01-10T17:30:39;9.74;58.14
65707;SHT31;52423;43.512;5.220;2023-01-10T17:33:04;9.71;58.39
65707;SHT31;52423;43.512;5.220;2023-01-10T17:35:37;9.67;58.58
65707;SHT31;52423;43.512;5.220;2023-01-10T17:38:02;9.68;59.91
65707;SHT31;52423;43.512;5.220;2023-01-10T17:40:27;9.65;58.07
65707;SHT31;52423;43.512;5.220;2023-01-10T17:42:53;9.65;58.02
65707;SHT31;52423;43.512;5.220;2023-01-10T17:45:18;9.67;58.20
65707;SHT31;52423;43.512;5.220;2023-01-10T17:47:44;9.61;59.17
65707;SHT31;52423;43.512;5.220;2023-01-10T17:50:09;9.65;58.34
65707;SHT31;52423;43.512;5.220;2023-01-10T17:52:34;9.58;59.51